Data for 11/25/2009

Time Sea-Level Adjusted Pressure Absolute Pressure Temperature Relative Humidity Dew Point   
(mb) (inHg) (mb) (inHg) (C) (F) (%) (C) (F)
00:05 1027 30.33 856 25.28 1.2 34.1 62 -5.3 22.4
00:10 1027 30.33 856 25.28 1.1 33.9 63 -5.1 22.8
00:15 1027 30.33 856 25.28 0.8 33.4 65 -5 22.9
00:20 1027 30.33 856 25.28 0.6 33.1 66 -5.1 22.8
00:25 1027 30.33 856 25.28 0.6 33.1 66 -5.1 22.8
00:30 1027 30.33 856 25.28 0.4 32.8 68 -4.8 23.3
00:35 1027 30.33 856 25.28 0.1 32.2 68 -5.1 22.8
00:40 1027 30.33 856 25.28 0.4 32.7 66 -5.2 22.6
00:45 1027 30.33 856 25.28 0.8 33.4 64 -5.2 22.7
00:50 1027 30.33 856 25.28 1.2 34.2 63 -5 23
00:55 1027 30.33 856 25.28 1.2 34.1 65 -4.7 23.5
01:00 1026 30.3 856 25.28 1 33.8 66 -4.7 23.6
01:05 1026 30.3 856 25.28 0.8 33.4 67 -4.7 23.5
01:10 1027 30.33 856 25.28 0.8 33.5 67 -4.6 23.8
01:15 1027 30.33 856 25.28 0.7 33.2 68 -4.5 23.9
01:20 1026 30.3 856 25.28 0.6 33.1 67 -4.8 23.4
01:25 1026 30.3 856 25.28 0.7 33.2 67 -4.8 23.3
01:30 1027 30.33 856 25.28 1.2 34.2 63 -5.1 22.9
01:35 1027 30.33 856 25.28 1.5 34.8 63 -4.8 23.4
01:40 1027 30.33 856 25.28 2 35.7 59 -5 22.9
01:45 1027 30.33 856 25.28 2.6 36.6 60 -4.5 24
01:50 1027 30.33 856 25.28 2.4 36.4 62 -4.1 24.6
01:55 1027 30.33 856 25.28 2.2 36 63 -4.1 24.6
02:00 1027 30.33 856 25.28 2.2 35.9 62 -4.3 24.2
02:05 1027 30.33 856 25.28 2.2 36 62 -4.2 24.4
02:10 1027 30.33 856 25.28 2.2 36 63 -4 24.7
02:15 1026 30.3 856 25.28 1.9 35.5 64 -4.1 24.7
02:20 1027 30.33 856 25.28 1.8 35.2 64 -4.4 24.1
02:25 1027 30.33 856 25.28 2.2 36 61 -4.6 23.7
02:30 1027 30.33 856 25.28 2.6 36.7 59 -4.6 23.6
02:35 1027 30.33 856 25.28 3 37.4 58 -4.3 24.2
02:40 1027 30.33 856 25.28 3.1 37.6 62 -3.5 25.7
02:45 1027 30.33 856 25.28 1.9 35.5 63 -4.5 24
02:50 1027 30.33 856 25.28 2.1 35.8 65 -3.8 25.2
02:55 1027 30.33 856 25.28 1.2 34.1 70 -3.8 25.2
03:00 1027 30.33 856 25.28 0.5 32.9 72 -4 24.9
03:05 1027 30.33 856 25.28 0.3 32.5 72 -4.2 24.4
03:10 1027 30.33 856 25.28 0.2 32.4 71 -4.5 24
03:15 1027 30.33 856 25.28 0.8 33.5 69 -4.2 24.5
03:20 1027 30.33 856 25.28 0.9 33.6 71 -3.8 25.2
03:25 1027 30.33 856 25.28 0.8 33.5 70 -4 24.8
03:30 1027 30.33 856 25.28 0.9 33.7 70 -3.9 25
03:35 1027 30.33 856 25.28 1.2 34.1 67 -4.2 24.4
03:40 1027 30.33 856 25.28 1.4 34.5 67 -4 24.8
03:45 1027 30.33 856 25.28 1.3 34.3 67 -4.2 24.4
03:50 1027 30.33 856 25.28 1.7 35 66 -4 24.8
03:55 1027 30.33 856 25.28 1.3 34.3 71 -3.4 25.8
04:00 1027 30.33 856 25.28 0.8 33.5 72 -3.7 25.4
04:05 1027 30.33 856 25.28 0.8 33.4 71 -3.9 25.1
04:10 1027 30.33 856 25.28 0.6 33 72 -3.9 25
04:15 1027 30.33 856 25.28 0.3 32.6 73 -3.9 24.9
04:20 1027 30.33 856 25.28 0.3 32.6 73 -4 24.9
04:25 1026 30.3 856 25.28 0.4 32.6 73 -4 24.9
04:30 1027 30.33 856 25.28 0.1 32.3 73 -4.1 24.6
04:35 1027 30.33 856 25.28 -0.2 31.7 75 -4.1 24.5
04:40 1027 30.33 856 25.28 -0.3 31.5 74 -4.3 24.2
04:45 1027 30.33 856 25.28 -0.5 31.1 76 -4.3 24.2
04:50 1027 30.33 856 25.28 -1.2 29.8 78 -4.5 23.8
04:55 1026 30.3 856 25.28 -1.1 30 77 -4.6 23.6
05:00 1026 30.3 856 25.28 -1.1 30.1 78 -4.4 24
05:05 1026 30.3 856 25.28 -1 30.2 78 -4.3 24.3
05:10 1026 30.3 856 25.28 -0.9 30.5 76 -4.5 23.9
05:15 1026 30.3 855 25.25 -1.1 30.1 78 -4.4 24.1
05:20 1026 30.3 856 25.28 -1.3 29.7 79 -4.5 23.9
05:25 1026 30.3 855 25.25 -1.2 29.8 79 -4.5 23.9
05:30 1026 30.3 855 25.25 -1 30.1 77 -4.6 23.8
05:35 1026 30.3 855 25.25 -1.1 30 77 -4.6 23.6
05:40 1026 30.3 855 25.25 -1.3 29.7 78 -4.6 23.8
05:45 1026 30.3 855 25.25 -1.2 29.9 78 -4.5 23.8
05:50 1026 30.3 855 25.25 -1.1 30.1 77 -4.5 23.8
05:55 1026 30.3 855 25.25 -0.8 30.5 76 -4.6 23.7
06:00 1026 30.3 855 25.25 -0.7 30.8 75 -4.5 23.9
06:05 1026 30.3 855 25.25 -0.6 30.9 75 -4.4 24
06:10 1026 30.3 855 25.25 -0.6 31 75 -4.4 24
06:15 1026 30.3 855 25.25 -0.7 30.8 75 -4.5 23.9
06:20 1026 30.3 855 25.25 -0.7 30.7 75 -4.6 23.7
06:25 1026 30.3 856 25.28 -1 30.2 77 -4.5 23.8
06:30 1026 30.3 855 25.25 -1.3 29.7 77 -4.8 23.4
06:35 1026 30.3 855 25.25 -1.6 29.2 79 -4.8 23.3
06:40 1026 30.3 856 25.28 -1.8 28.7 80 -4.9 23.2
06:45 1026 30.3 856 25.28 -1.9 28.6 80 -4.8 23.3
06:50 1026 30.3 856 25.28 -2 28.5 81 -4.8 23.4
06:55 1026 30.3 856 25.28 -1.9 28.5 80 -5 23
07:00 1026 30.3 856 25.28 -1.7 28.9 78 -5.1 22.8
07:05 1027 30.33 856 25.28 -2.1 28.2 78 -5.4 22.3
07:10 1027 30.33 856 25.28 -2.5 27.5 80 -5.5 22.1
07:15 1027 30.33 856 25.28 -2.4 27.7 78 -5.8 21.6
07:20 1027 30.33 856 25.28 -2.8 27 79 -6 21.3
07:25 1027 30.33 856 25.28 -3.1 26.4 83 -5.6 22
07:30 1027 30.33 856 25.28 -2.8 27 82 -5.5 22.2
07:35 1027 30.33 856 25.28 -2.4 27.6 82 -5.1 22.8
07:40 1027 30.33 856 25.28 -2.4 27.8 81 -5.1 22.7
07:45 1027 30.33 856 25.28 -2.4 27.7 81 -5.1 22.7
07:50 1027 30.33 856 25.28 -2.2 28 80 -5.3 22.5
07:55 1027 30.33 856 25.28 -2 28.4 79 -5.2 22.7
08:00 1027 30.33 856 25.28 -2 28.4 79 -5.2 22.7
08:05 1027 30.33 856 25.28 -1.9 28.5 78 -5.3 22.5
08:10 1027 30.33 856 25.28 -1.4 29.4 75 -5.3 22.4
08:15 1027 30.33 856 25.28 -1.2 29.8 74 -5.3 22.4
08:20 1027 30.33 856 25.28 -1.4 29.5 74 -5.5 22.1
08:25 1027 30.33 856 25.28 -1.6 29.2 74 -5.5 22
08:30 1027 30.33 856 25.28 -1.3 29.6 73 -5.6 22
08:35 1027 30.33 856 25.28 -1.2 29.9 72 -5.6 21.9
08:40 1027 30.33 856 25.28 -1.2 29.9 74 -5.3 22.5
08:45 1027 30.33 856 25.28 -1.2 29.9 72 -5.5 22.1
08:50 1027 30.33 856 25.28 -1.3 29.8 74 -5.4 22.3
08:55 1027 30.33 856 25.28 -1 30.2 72 -5.5 22
09:00 1027 30.33 856 25.28 -0.8 30.6 71 -5.4 22.3
09:05 1027 30.33 856 25.28 -0.6 31 68 -5.7 21.8
09:10 1027 30.33 856 25.28 0.4 32.7 65 -5.5 22.2
09:15 1027 30.33 856 25.28 1 33.8 63 -5.4 22.3
09:20 1027 30.33 856 25.28 1.2 34.1 62 -5.2 22.6
09:25 1027 30.33 856 25.28 1.3 34.3 60 -5.6 22
09:30 1027 30.33 856 25.28 1.3 34.4 60 -5.6 21.9
09:35 1027 30.33 856 25.28 1 33.9 61 -5.8 21.6
09:40 1027 30.33 856 25.28 1.4 34.6 60 -5.4 22.2
09:45 1027 30.33 856 25.28 1.4 34.5 60 -5.6 21.9
09:50 1027 30.33 856 25.28 1.9 35.3 59 -5.4 22.4
09:55 1027 30.33 856 25.28 2.3 36.2 56 -5.5 22.1
10:00 1027 30.33 856 25.28 2.3 36.1 57 -5.3 22.4
10:05 1027 30.33 856 25.28 2.5 36.6 56 -5.5 22.1
10:10 1027 30.33 856 25.28 3.2 37.7 54 -5.3 22.5
10:15 1027 30.33 856 25.28 3.7 38.6 52 -5.4 22.3
10:20 1027 30.33 856 25.28 3.9 39.1 51 -5.3 22.5
10:25 1027 30.33 856 25.28 3.9 39 50 -5.5 22.1
10:30 1027 30.33 856 25.28 3.6 38.5 51 -5.5 22.1
10:35 1027 30.33 856 25.28 3.3 38 52 -5.6 21.9
10:40 1027 30.33 856 25.28 3.5 38.4 51 -5.7 21.8
10:45 1027 30.33 856 25.28 3.6 38.6 52 -5.4 22.4
10:50 1027 30.33 856 25.28 3.6 38.5 53 -5.1 22.9
10:55 1027 30.33 856 25.28 3.6 38.4 51 -5.6 21.8
11:00 1027 30.33 856 25.28 3.5 38.4 53 -5.1 22.8
11:05 1027 30.33 856 25.28 3.8 38.9 52 -5.2 22.7
11:10 1027 30.33 856 25.28 3.9 39 50 -5.5 22.1
11:15 1027 30.33 856 25.28 4 39.3 52 -5 23
11:20 1027 30.33 856 25.28 4.2 39.5 50 -5.2 22.6
11:25 1027 30.33 856 25.28 4.2 39.6 50 -5.3 22.5
11:30 1027 30.33 856 25.28 4.9 40.9 48 -5.1 22.8
11:35 1027 30.33 856 25.28 5.3 41.6 47 -5 23
11:40 1027 30.33 856 25.28 5.6 42.1 47 -4.8 23.3
11:45 1027 30.33 856 25.28 5.6 42.2 47 -4.9 23.2
11:50 1027 30.33 856 25.28 6 42.7 47 -4.6 23.7
11:55 1027 30.33 856 25.28 5.8 42.5 47 -4.5 23.9
12:00 1027 30.33 856 25.28 5.8 42.5 48 -4.5 24
12:05 1027 30.33 856 25.28 5.7 42.2 47 -4.7 23.5
12:10 1026 30.3 856 25.28 5.4 41.8 49 -4.5 23.9
12:15 1026 30.3 856 25.28 4.9 40.8 50 -4.5 23.9
12:20 1026 30.3 856 25.28 4.1 39.4 54 -4.3 24.2
12:25 1026 30.3 856 25.28 4.2 39.5 51 -5.1 22.9
12:30 1026 30.3 855 25.25 4.8 40.6 50 -4.6 23.6
12:35 1026 30.3 855 25.25 5.6 42.1 48 -4.6 23.6
12:40 1026 30.3 855 25.25 6 42.9 47 -4.4 24
12:45 1026 30.3 855 25.25 6.5 43.6 44 -4.8 23.4
12:50 1026 30.3 855 25.25 6.6 43.9 45 -4.4 24.1
12:55 1026 30.3 855 25.25 6.4 43.5 47 -4 24.8
13:00 1026 30.3 855 25.25 6.1 43.1 46 -4.7 23.6
13:05 1026 30.3 855 25.25 6.1 42.9 47 -4.3 24.2
13:10 1025 30.27 855 25.25 6.1 43 47 -4.4 24.1
13:15 1025 30.27 855 25.25 6.1 42.9 46 -4.6 23.7
13:20 1025 30.27 855 25.25 6.3 43.4 46 -4.4 24.1
13:25 1025 30.27 854 25.22 6.2 43.2 47 -4.2 24.5
13:30 1025 30.27 854 25.22 6.7 44.1 44 -4.8 23.4
13:35 1025 30.27 854 25.22 7.3 45.2 44 -4.2 24.4
13:40 1025 30.27 854 25.22 7.2 45 44 -4.1 24.6
13:45 1025 30.27 854 25.22 6.7 44 46 -4.1 24.5
13:50 1025 30.27 854 25.22 6.5 43.7 45 -4.6 23.7
13:55 1025 30.27 854 25.22 7.2 44.9 44 -4.3 24.2
14:00 1025 30.27 854 25.22 7.6 45.6 43 -4.2 24.5
14:05 1025 30.27 854 25.22 7.9 46.1 42 -4.4 24.1
14:10 1025 30.27 854 25.22 7.4 45.4 43 -4.5 24
14:15 1025 30.27 854 25.22 7.1 44.7 45 -4.2 24.5
14:20 1025 30.27 854 25.22 6.7 44 47 -3.9 25
14:25 1025 30.27 854 25.22 6.7 44 44 -4.6 23.7
14:30 1025 30.27 854 25.22 6.8 44.3 46 -4.1 24.7
14:35 1025 30.27 854 25.22 6.8 44.2 45 -4.2 24.4
14:40 1025 30.27 854 25.22 6.8 44.3 45 -4.3 24.2
14:45 1025 30.27 854 25.22 6.6 43.9 46 -4.1 24.7
14:50 1025 30.27 854 25.22 6.6 43.9 47 -3.9 24.9
14:55 1025 30.27 854 25.22 6.6 43.9 47 -3.9 25
15:00 1025 30.27 854 25.22 6.8 44.2 45 -4.3 24.3
15:05 1025 30.27 854 25.22 6.9 44.4 45 -4.2 24.4
15:10 1025 30.27 854 25.22 6.9 44.4 45 -4.2 24.4
15:15 1025 30.27 854 25.22 6.8 44.2 45 -4.2 24.5
15:20 1025 30.27 854 25.22 6.7 44.1 46 -4 24.8
15:25 1025 30.27 854 25.22 6.4 43.6 47 -4.1 24.6
15:30 1025 30.27 854 25.22 6.5 43.8 45 -4.4 24
15:35 1025 30.27 854 25.22 6.4 43.6 46 -4.4 24.2
15:40 1025 30.27 854 25.22 6 42.9 47 -4.4 24.1
15:45 1025 30.27 854 25.22 5.4 41.7 49 -4.6 23.8
15:50 1025 30.27 854 25.22 5.5 41.9 49 -4.4 24
15:55 1025 30.27 854 25.22 5.7 42.3 48 -4.5 23.9
16:00 1025 30.27 854 25.22 4.6 40.3 53 -4.1 24.6
16:05 1024 30.24 854 25.22 4.4 40 52 -4.6 23.7
16:10 1025 30.27 854 25.22 4.4 39.9 52 -4.5 23.9
16:15 1025 30.27 854 25.22 4 39.1 54 -4.6 23.7
16:20 1024 30.24 854 25.22 3.8 38.8 55 -4.5 24
16:25 1024 30.24 854 25.22 3.4 38.2 55 -4.7 23.5
16:30 1024 30.24 854 25.22 3.5 38.3 55 -4.7 23.6
16:35 1024 30.24 854 25.22 3.7 38.7 54 -4.7 23.5
16:40 1024 30.24 854 25.22 3.2 37.8 57 -4.6 23.7
16:45 1024 30.24 854 25.22 2.8 37.1 58 -4.6 23.8
16:50 1024 30.24 854 25.22 2.6 36.6 60 -4.4 24.1
16:55 1024 30.24 854 25.22 2.3 36.2 61 -4.4 24.1
17:00 1024 30.24 854 25.22 2.4 36.3 62 -4.3 24.3
17:05 1024 30.24 854 25.22 2.1 35.8 63 -4.3 24.3
17:10 1025 30.27 854 25.22 1.9 35.5 63 -4.3 24.2
17:15 1025 30.27 854 25.22 1.6 34.9 65 -4.3 24.2
17:20 1025 30.27 854 25.22 1.3 34.4 65 -4.5 23.8
17:25 1024 30.24 854 25.22 1.5 34.7 64 -4.6 23.8
17:30 1024 30.24 854 25.22 1.7 35 64 -4.4 24
17:35 1024 30.24 854 25.22 1.8 35.3 62 -4.8 23.4
17:40 1024 30.24 854 25.22 2.2 35.9 61 -4.5 23.9
17:45 1024 30.24 854 25.22 2.1 35.8 62 -4.5 23.9
17:50 1024 30.24 854 25.22 2.1 35.8 62 -4.5 23.9
17:55 1024 30.24 854 25.22 2 35.6 62 -4.5 23.9
18:00 1024 30.24 854 25.22 2.1 35.8 61 -4.6 23.7
18:05 1024 30.24 854 25.22 2.2 35.9 61 -4.5 23.8
18:10 1024 30.24 854 25.22 2.2 35.9 61 -4.5 23.9
18:15 1024 30.24 853 25.19 2.5 36.4 60 -4.6 23.7
18:20 1024 30.24 853 25.19 2.8 37 59 -4.5 23.9
18:25 1024 30.24 853 25.19 2.8 37 59 -4.5 23.8
18:30 1024 30.24 853 25.19 2.9 37.3 58 -4.5 23.8
18:35 1024 30.24 853 25.19 2.7 36.9 58 -4.6 23.6
18:40 1024 30.24 853 25.19 2.7 36.9 58 -4.7 23.5
18:45 1024 30.24 853 25.19 2.8 37.1 58 -4.7 23.5
18:50 1024 30.24 853 25.19 2.8 37 58 -4.6 23.7
18:55 1024 30.24 853 25.19 2.6 36.7 59 -4.6 23.8
19:00 1024 30.24 853 25.19 2.3 36.2 61 -4.4 24.1
19:05 1024 30.24 853 25.19 1.8 35.3 63 -4.4 24.1
19:10 1024 30.24 853 25.19 1.6 34.8 64 -4.4 24.1
19:15 1024 30.24 853 25.19 1.2 34.2 65 -4.6 23.7
19:20 1024 30.24 853 25.19 1.4 34.6 64 -4.6 23.7
19:25 1024 30.24 853 25.19 1.6 34.9 63 -4.6 23.7
19:30 1024 30.24 853 25.19 1.8 35.2 63 -4.5 23.9
19:35 1024 30.24 853 25.19 1.9 35.5 62 -4.6 23.8
19:40 1024 30.24 853 25.19 2.1 35.7 62 -4.5 23.9
19:45 1024 30.24 853 25.19 2.1 35.7 63 -4.4 24.2
19:50 1024 30.24 853 25.19 2 35.6 62 -4.5 23.9
19:55 1024 30.24 853 25.19 2.2 36 61 -4.5 23.8
20:00 1024 30.24 853 25.19 2.2 35.9 61 -4.7 23.6
20:05 1024 30.24 853 25.19 2.4 36.3 60 -4.7 23.6
20:10 1024 30.24 853 25.19 2.3 36.1 59 -4.8 23.3
20:15 1024 30.24 853 25.19 2.3 36.2 60 -4.6 23.7
20:20 1024 30.24 853 25.19 1.9 35.5 61 -4.7 23.5
20:25 1024 30.24 853 25.19 1.7 35.1 61 -4.9 23.2
20:30 1024 30.24 853 25.19 2.1 35.7 62 -4.5 24
20:35 1024 30.24 853 25.19 2.2 36 61 -4.4 24
20:40 1024 30.24 853 25.19 1.9 35.4 64 -4.3 24.3
20:45 1024 30.24 853 25.19 1.6 34.8 63 -4.7 23.6
20:50 1024 30.24 853 25.19 1.6 34.9 64 -4.4 24
20:55 1024 30.24 853 25.19 2.1 35.7 61 -4.7 23.5
21:00 1024 30.24 853 25.19 2.3 36.1 61 -4.4 24.1
21:05 1024 30.24 853 25.19 1.9 35.4 63 -4.4 24.1
21:10 1024 30.24 853 25.19 1.4 34.5 65 -4.4 24
21:15 1024 30.24 853 25.19 1.9 35.5 61 -4.9 23.3
21:20 1024 30.24 853 25.19 2.3 36.1 60 -4.7 23.6
21:25 1024 30.24 853 25.19 2.1 35.7 61 -4.7 23.5
21:30 1024 30.24 853 25.19 2 35.6 61 -4.7 23.6
21:35 1024 30.24 853 25.19 1.7 35 63 -4.7 23.6
21:40 1024 30.24 853 25.19 1.2 34.1 64 -4.9 23.1
21:45 1024 30.24 853 25.19 1.4 34.5 63 -4.9 23.1
21:50 1024 30.24 853 25.19 1.5 34.8 63 -4.7 23.5
21:55 1024 30.24 853 25.19 1.6 34.9 61 -5 22.9
22:00 1024 30.24 853 25.19 2.2 35.9 61 -4.7 23.6
22:05 1024 30.24 853 25.19 2 35.7 61 -4.7 23.5
22:10 1024 30.24 853 25.19 1.8 35.2 62 -4.7 23.5
22:15 1024 30.24 853 25.19 1.6 34.8 63 -4.7 23.5
22:20 1024 30.24 853 25.19 1.4 34.5 63 -4.8 23.3
22:25 1024 30.24 853 25.19 1.2 34.2 64 -4.7 23.5
22:30 1024 30.24 853 25.19 1.5 34.7 62 -4.9 23.2
22:35 1024 30.24 853 25.19 1.6 34.8 63 -4.7 23.5
22:40 1024 30.24 853 25.19 1.4 34.5 62 -5.1 22.9
22:45 1024 30.24 853 25.19 2.1 35.8 60 -4.8 23.3
22:50 1024 30.24 853 25.19 2.4 36.3 59 -4.7 23.5
22:55 1024 30.24 853 25.19 2.9 37.1 58 -4.6 23.8
23:00 1024 30.24 853 25.19 2.8 37.1 58 -4.6 23.7
23:05 1024 30.24 853 25.19 3 37.4 58 -4.5 23.9
23:10 1024 30.24 853 25.19 3 37.4 58 -4.4 24
23:15 1024 30.24 853 25.19 2.4 36.3 61 -4.4 24
23:20 1024 30.24 853 25.19 2.5 36.5 59 -4.8 23.4
23:25 1024 30.24 853 25.19 2.8 37.1 60 -4.2 24.4
23:30 1024 30.24 853 25.19 2.9 37.3 58 -4.5 23.9
23:35 1024 30.24 853 25.19 3.2 37.8 57 -4.5 23.9
23:40 1024 30.24 853 25.19 3.4 38.2 57 -4.4 24.1
23:45 1024 30.24 853 25.19 3.4 38.2 57 -4.2 24.4
23:50 1024 30.24 853 25.19 3 37.3 59 -4.4 24.1
23:55 1024 30.24 853 25.19 2.1 35.8 62 -4.3 24.2
24:00 1024 30.24 853 25.19 1.8 35.2 62 -4.9 23.3